• Join FlightAware (Why Join?)
  • Login
  • US Flag 
07:02AM EDT


 

Airport Tracker/Info


-or-


 

Live Flight TrackerFlight Track Log ✈ RPA3228 ✈ 06-Sep-2013 ✈ KDCA - KBUF

Flight Track Log - Related Links

Times and Time Zones

All times are in EDT time to prevent confusion due to time zone crossing. See the RPA3228 flight status page for this flight to view local times or setup timezone preferences in your user account.

Time Position Orientation Groundspeed Altitude Reporting Facility
EDT Latitude Longitude Course Direction KTS MPH feet Rate Location/Type
10:27AM 38.8667 -77.0500 339° North 147 169 1,000  Level Potomac TRACON
10:28AM 38.9000 -77.0833 322° Northwest 210 242 2,900 2,400 Climbing Potomac TRACON
10:29AM 38.9500 -77.1500 314° West 267 307 5,700 3,540 Climbing Potomac TRACON
10:30AM 39.1550 -77.1560 337° Northwest  Level Estimated
10:30AM 39.0000 -77.2167 314° West 266 306 9,700  Level Potomac TRACON
10:31AM 39.2560 -77.1956 333° Northwest  Level Estimated
10:31AM 39.0333 -77.3167 293° West 299 344 12,300  Level Potomac TRACON
10:32AM 39.3570 -77.2354 339° North  Level Estimated
10:32AM 39.0500 -77.4333 280° West 341 392 15,300  Level Potomac TRACON
10:33AM 39.4580 -77.2752 339° North  Level Estimated
10:34AM 39.2219 -77.4669 351° North 298 343 17,900  Level Washington Center
10:35AM 39.3200 -77.4642 North 313 360 20,500 2,220 Climbing Washington Center
10:38AM 39.5672 -77.4583 North 364 419 25,600 1,860 Climbing New York Center
10:39AM 39.6758 -77.4553 North 375 432 27,000 660 Climbing New York Center
10:40AM 39.7844 -77.4547 360° North 380 437 27,000 300 Level New York Center
10:41AM 39.8906 -77.4569 359° North 385 443 27,700 480 Climbing New York Center
10:42AM 39.9928 -77.4936 345° North 385 443 28,000 120 Climbing New York Center
10:43AM 40.0969 -77.5336 344° North 385 443 28,000  Level New York Center
10:44AM 40.1867 -77.5667 344° North 385 443 28,000  Level New York Center
10:45AM 40.2986 -77.6158 341° North 385 443 28,000  Level New York Center
10:46AM 40.3983 -77.6558 343° North 385 443 28,000  Level New York Center
10:49AM 40.7397 -77.7961 343° North 374 430 28,000  Level Cleveland Center
10:50AM 40.8431 -77.8383 343° North 374 430 28,000  Level Cleveland Center
10:51AM 40.9400 -77.8783 343° North 374 430 28,000  Level Cleveland Center
10:52AM 41.0408 -77.9181 343° North 368 423 28,000  Level Cleveland Center
10:53AM 41.1400 -77.9611 342° North 368 423 28,000  Level Cleveland Center
10:54AM 41.2389 -77.9983 344° North 368 423 28,000  Level Cleveland Center
10:55AM 41.3378 -78.0444 341° North 368 423 28,000  Level Cleveland Center
10:56AM 41.4492 -78.0897 343° North 378 435 28,000  Level Cleveland Center
10:57AM 41.5481 -78.1306 343° North 378 435 28,000 -360 Level Cleveland Center
10:58AM 41.6511 -78.1739 343° North 378 435 27,300 -1,380 Descending Cleveland Center
10:59AM 41.7500 -78.2175 342° North 378 435 25,300 -1,920 Descending Cleveland Center
11:00AM 41.8447 -78.2586 342° North 365 420 23,500 -1,860 Descending Cleveland Center
11:01AM 41.9353 -78.2972 342° North 353 406 21,600 -1,860 Descending Cleveland Center
11:02AM 42.0278 -78.3358 343° North 347 399 19,800 -1,800 Descending Cleveland Center
11:03AM 42.1161 -78.3744 342° North 341 392 18,100 -1,740 Descending Cleveland Center
11:04AM 42.2000 -78.4081 343° North 336 387 16,400 -1,740 Descending Cleveland Center
11:05AM 42.2861 -78.4444 343° North 330 380 14,700 -1,740 Descending Cleveland Center
11:06AM 42.3681 -78.4811 342° North 325 374 13,000 -1,680 Descending Cleveland Center
11:07AM 42.4481 -78.5150 343° North 310 357 11,400 -1,500 Descending Cleveland Center
11:08AM 42.5236 -78.5464 343° North 294 338 10,100 -1,260 Descending Cleveland Center
11:09AM 42.5908 -78.5753 342° North 282 325 8,900 -1,200 Descending Cleveland Center
11:10AM 42.6622 -78.6039 344° North 267 307 7,700 -1,500 Descending Cleveland Center
11:11AM 42.7414 -78.6072 358° North 257 296 5,900 -1,800 Descending Cleveland Center
11:12AM 42.8122 -78.6050 North 257 296 4,100 -1,080 Descending Cleveland Center
11:13AM 42.8853 -78.6056 360° North 251 289 3,800 -840 Descending Cleveland Center
11:14AM 42.9497 -78.5978 North 251 289 2,500 -720 Descending Cleveland Center
11:16AM 42.9833 -78.6667 304° West 148 170 1,900 -480 Descending Buffalo TRACON
11:17AM 42.9667 -78.7000 236° Southwest 114 131 1,300 -720 Descending Buffalo TRACON